EW8629 Weather Reports


Display with metric or nautical units.
time (UTC)temp
F
wind
direction
speed
MPH
gust
MPH
rain 1hr
in
rain 24hr
in
rain mn
in
humidity
%
barometer
mb
20180921232535 61 10 4.0 12.0 0.00 0.00 0.00 68 1015.2
20180921231600 61 117 4.0 12.0 0.00 0.00 0.00 68 1015.5
20180921230556 61 179 7.0 15.0 0.00 0.00 0.00 68 1015.7
20180921225553 61 161 5.0 14.0 0.00 0.00 0.00 67 1015.9
20180921224548 61 163 3.0 8.0 0.00 0.00 0.00 67 1016.1
20180921223544 61 166 4.0 10.0 0.00 0.00 0.00 66 1016.3
20180921222540 61 141 4.0 9.0 0.00 0.00 0.00 66 1016.6
20180921221535 61 155 2.0 6.0 0.00 0.00 0.00 66 1016.7
20180921220530 61 150 3.0 10.0 0.00 0.00 0.00 66 1016.8
20180921215526 61 141 3.0 11.0 0.00 0.00 0.00 67 1016.7
20180921214522 61 164 5.0 12.0 0.00 0.00 0.00 67 1017.2
20180921213518 61 160 2.0 6.0 0.00 0.00 0.00 66 1017.5
20180921212615 61 296 4.0 10.0 0.00 0.00 0.00 66 1017.4
20180921211610 61 85 2.0 10.0 0.00 0.00 0.00 65 1017.8
20180921210607 61 203 4.0 14.0 0.00 0.00 0.00 65 1018.3
20180921205602 61 51 3.0 7.0 0.00 0.00 0.00 65 1018.6
20180921204558 61 270 4.0 10.0 0.00 0.00 0.00 64 1018.7
20180921203554 61 147 3.0 6.0 0.00 0.00 0.00 65 1019.1
20180921202549 61 110 4.0 11.0 0.00 0.00 0.00 65 1019.1
20180921201544 61 221 2.0 6.0 0.00 0.00 0.00 65 1019.6
20180921200540 61 100 2.0 7.0 0.00 0.00 0.00 64 1019.5
20180921195536 62 60 2.0 8.0 0.00 0.00 0.00 64 1019.7
20180921194531 62 135 1.0 4.0 0.00 0.00 0.00 64 1020.0
20180921193527 62 91 2.0 6.0 0.00 0.00 0.00 63 1020.0
20180921192524 62 128 4.0 9.0 0.00 0.00 0.00 63 1020.2
20180921191519 62 170 1.0 6.0 0.00 0.00 0.00 62 1020.4
20180921190515 62 176 3.0 8.0 0.00 0.00 0.00 62 1020.4
20180921185610 62 162 5.0 13.0 0.00 0.00 0.00 62 1020.7
20180921184606 62 101 4.0 10.0 0.00 0.00 0.00 62 1020.9
20180921183602 62 103 5.0 15.0 0.00 0.00 0.00 62 1021.3
20180921182558 62 144 5.0 9.0 0.00 0.00 0.00 62 1021.6
20180921181554 62 81 5.0 10.0 0.00 0.00 0.00 62 1022.0
20180921180549 62 100 3.0 10.0 0.00 0.00 0.00 61 1022.3
20180921175546 62 173 4.0 11.0 0.00 0.00 0.00 60 1022.1
20180921174541 62 216 3.0 6.0 0.00 0.00 0.00 61 1022.6
20180921173536 62 163 6.0 16.0 0.00 0.00 0.00 61 1022.8
20180921172532 63 103 5.0 12.0 0.00 0.00 0.00 60 1022.9
20180921171528 62 99 5.0 12.0 0.00 0.00 0.00 60 1023.0
20180921170524 62 143 5.0 14.0 0.00 0.00 0.00 60 1023.4
20180921165520 63 153 7.0 14.0 0.00 0.00 0.00 59 1023.5
20180921164516 62 145 3.0 10.0 0.00 0.00 0.00 59 1023.7
20180921163612 61 118 3.0 7.0 0.00 0.00 0.00 60 1024.0
20180921162608 61 154 3.0 8.0 0.00 0.00 0.00 60 1023.9
20180921161604 62 126 2.0 10.0 0.00 0.00 0.00 61 1024.2
20180921160558 62 136 4.0 10.0 0.00 0.00 0.00 59 1024.3
20180921155554 63 108 3.0 8.0 0.00 0.00 0.00 58 1024.4
20180921154550 64 142 4.0 10.0 0.00 0.00 0.00 57 1024.5
20180921153545 63 119 4.0 8.0 0.00 0.00 0.00 58 1024.6
20180921152542 63 130 3.0 9.0 0.00 0.00 0.00 56 1024.7
20180921151538 63 158 6.0 13.0 0.00 0.00 0.00 56 1024.9
20180921150533 64 132 3.0 12.0 0.00 0.00 0.00 56 1025.0
20180921145529 63 133 3.0 6.0 0.00 0.00 0.00 58 1025.6
20180921144526 64 129 4.0 10.0 0.00 0.00 0.00 57 1025.4
20180921143521 62 125 4.0 12.0 0.00 0.00 0.00 58 1025.7
20180921142518 62 96 4.0 12.0 0.00 0.00 0.00 57 1025.7
20180921141613 63 201 3.0 11.0 0.00 0.00 0.00 58 1025.9
20180921140610 62 150 2.0 5.0 0.00 0.00 0.00 59 1026.2
20180921135605 61 136 2.0 10.0 0.00 0.00 0.00 60 1026.2
20180921134601 60 152 3.0 8.0 0.00 0.00 0.00 60 1026.2
20180921133557 60 320 2.0 6.0 0.00 0.00 0.00 62 1026.7
20180921132553 60 185 3.0 10.0 0.00 0.00 0.00 62 1026.8
20180921131549 60 98 3.0 12.0 0.00 0.00 0.00 61 1026.8
20180921130545 61 151 4.0 8.0 0.00 0.00 0.00 61 1027.2
20180921125541 62 95 2.0 6.0 0.00 0.00 0.00 61 1027.2
20180921124537 61 162 2.0 6.0 0.00 0.00 0.00 62 1027.3
20180921123533 61 126 3.0 8.0 0.00 0.00 0.00 62 1027.1
20180921122529 60 148 1.0 5.0 0.00 0.00 0.00 66 1027.0
20180921121525 58 152 1.0 5.0 0.00 0.00 0.00 68 1027.0
20180921120521 58 140 2.0 5.0 0.00 0.00 0.00 68 1026.9
20180921115516 59 121 2.0 7.0 0.00 0.00 0.00 68 1027.0
20180921114613 56 141 4.0 8.0 0.00 0.00 0.00 72 1026.9
20180921113609 55 117 3.0 6.0 0.00 0.00 0.00 82 1027.0
20180921112605 53 126 2.0 5.0 0.00 0.00 0.00 91 1027.1
20180921111601 53 135 2.0 6.0 0.00 0.00 0.00 94 1027.1
20180921110557 52 135 2.0 7.0 0.00 0.00 0.00 97 1027.0
20180921105552 52 128 2.0 4.0 0.00 0.00 0.00 98 1027.3
20180921104549 51 137 2.0 4.0 0.00 0.00 0.00 98 1027.4
20180921103545 51 116 1.0 5.0 0.00 0.00 0.00 98 1027.5
20180921102541 51 145 0.0 2.0 0.00 0.00 0.00 98 1027.4
20180921101542 51 144 1.0 4.0 0.00 0.00 0.00 98 1027.0
20180921100532 52 174 1.0 2.0 0.00 0.00 0.00 98 1027.1
20180921095528 52 99 1.0 4.0 0.00 0.00 0.00 98 1027.2
20180921094524 51 137 1.0 4.0 0.00 0.00 0.00 98 1026.8
20180921093520 51 135 3.0 6.0 0.00 0.00 0.00 99 1026.8
20180921092519 51 146 1.0 4.0 0.00 0.00 0.00 99 1027.0
20180921091620 51 135 1.0 3.0 0.00 0.00 0.00 99 1026.9
20180921090609 51 141 1.0 3.0 0.00 0.00 0.00 99 1026.9
20180921085604 51 135 1.0 4.0 0.00 0.00 0.00 99 1026.7
20180921084601 51 137 2.0 4.0 0.00 0.00 0.00 99 1026.7
20180921083557 50 143 1.0 4.0 0.00 0.00 0.00 99 1026.7
20180921082552 51 117 0.0 2.0 0.00 0.00 0.00 99 1026.9
20180921081548 50 124 0.0 2.0 0.00 0.00 0.00 99 1027.0
20180921080544 50 0.0 0.0 0.00 0.00 0.00 99 1027.0
20180921075540 50 180 1.0 2.0 0.00 0.00 0.00 99 1027.0
20180921074536 50 180 0.0 1.0 0.00 0.00 0.00 99 1027.0
20180921073532 50 180 1.0 3.0 0.00 0.00 0.00 99 1026.9
20180921072528 50 180 1.0 3.0 0.00 0.00 0.00 99 1026.8
20180921071524 50 180 0.0 2.0 0.00 0.00 0.00 99 1026.9
20180921070521 50 0.0 0.0 0.00 0.00 0.00 99 1027.0
20180921065615 50 180 0.0 2.0 0.00 0.00 0.00 99 1027.0
20180921064611 50 0.0 0.0 0.00 0.00 0.00 99 1027.0
20180921063606 50 180 0.0 1.0 0.00 0.00 0.00 99 1027.1
20180921062601 49 180 0.0 1.0 0.00 0.00 0.00 99 1027.1
20180921061557 49 0.0 0.0 0.00 0.00 0.00 99 1027.2
20180921060553 50 0.0 0.0 0.00 0.00 0.00 99 1027.2
20180921055549 49 0.0 0.0 0.00 0.00 0.00 99 1027.3
20180921054545 50 0.0 0.0 0.00 0.00 0.00 99 1027.4
20180921053541 50 0.0 0.0 0.00 0.00 0.00 99 1027.4
20180921052537 50 0.0 0.0 0.00 0.00 0.00 99 1027.5
20180921051533 50 0.0 0.0 0.00 0.00 0.00 99 1027.5
20180921050529 50 0.0 0.0 0.00 0.00 0.00 99 1027.5
20180921045525 50 0.0 0.0 0.00 0.00 0.00 99 1027.6
20180921044521 50 0.0 0.0 0.00 0.00 0.00 99 1027.6
20180921043516 51 0.0 0.0 0.00 0.00 0.00 99 1027.7
20180921042612 50 0.0 0.0 0.00 0.00 0.00 99 1027.7
20180921041608 50 0.0 0.0 0.00 0.00 0.00 99 1027.5
20180921040604 50 0.0 0.0 0.00 0.00 0.00 99 1027.7
20180921035600 50 0.0 0.0 0.00 0.00 0.00 99 1027.7
20180921034555 50 0.0 0.0 0.00 0.00 0.00 99 1027.8
20180921033551 50 180 0.0 2.0 0.00 0.00 0.00 99 1027.6
20180921032548 50 0.0 0.0 0.00 0.00 0.00 99 1027.5
20180921031543 50 0.0 0.0 0.00 0.00 0.00 99 1027.4
20180921030539 50 0.0 0.0 0.00 0.00 0.00 99 1027.6
20180921025535 50 0.0 0.0 0.00 0.00 0.00 99 1027.5
20180921024531 50 180 0.0 1.0 0.00 0.00 0.00 99 1027.2
20180921023527 50 0.0 0.0 0.00 0.00 0.00 99 1027.5
20180921022523 51 0.0 0.0 0.00 0.00 0.00 99 1027.5
20180921021519 51 0.0 0.0 0.00 0.00 0.00 99 1027.3
20180921020613 51 0.0 0.0 0.00 0.00 0.00 99 1027.3
20180921015610 51 0.0 0.0 0.00 0.00 0.00 98 1027.2
20180921014606 51 0.0 0.0 0.00 0.00 0.00 99 1027.0
20180921013601 52 0.0 0.0 0.00 0.00 0.00 98 1027.2
20180921012558 52 0.0 0.0 0.00 0.00 0.00 98 1027.1
20180921011554 52 0.0 0.0 0.00 0.00 0.00 98 1027.3
20180921010549 52 0.0 0.0 0.00 0.00 0.00 98 1027.3
20180921005545 52 0.0 0.0 0.00 0.00 0.00 96 1027.3
20180921004540 53 0.0 0.0 0.00 0.00 0.00 94 1027.5
20180921003535 53 0.0 0.0 0.00 0.00 0.00 93 1027.4
20180921002532 53 0.0 0.0 0.00 0.00 0.00 89 1027.2
20180921001527 54 0.0 0.0 0.00 0.00 0.00 88 1027.0
20180921000522 54 0.0 0.0 0.00 0.00 0.00 87 1026.8
20180920235518 54 0.0 0.0 0.00 0.00 0.00 84 1026.8
20180920234614 54 180 0.0 1.0 0.00 0.00 0.00 83 1026.5
20180920233610 54 180 0.0 2.0 0.00 0.00 0.00 80 1026.3